sensor_id;sensor_type;location;lat;lon;timestamp;pressure;altitude;pressure_sealevel;temperature;humidity
84677;BME280;74901;55.024;73.254;2024-03-25T00:00:57;99912.28;;;0.29;78.13
84677;BME280;74901;55.024;73.254;2024-03-25T00:03:25;99922.66;;;0.27;77.44
84677;BME280;74901;55.024;73.254;2024-03-25T00:05:53;99937.63;;;0.25;77.64
84677;BME280;74901;55.024;73.254;2024-03-25T00:08:22;99930.66;;;0.24;77.35
84677;BME280;74901;55.024;73.254;2024-03-25T00:10:51;99923.34;;;0.24;77.82
84677;BME280;74901;55.024;73.254;2024-03-25T00:13:21;99942.59;;;0.23;78.32
84677;BME280;74901;55.024;73.254;2024-03-25T00:15:48;99941.81;;;0.22;78.38
84677;BME280;74901;55.024;73.254;2024-03-25T00:18:17;99940.69;;;0.23;78.55
84677;BME280;74901;55.024;73.254;2024-03-25T00:20:45;99955.31;;;0.22;78.56
84677;BME280;74901;55.024;73.254;2024-03-25T00:23:13;99951.59;;;0.27;77.96
84677;BME280;74901;55.024;73.254;2024-03-25T00:25:41;99951.25;;;0.28;77.47
84677;BME280;74901;55.024;73.254;2024-03-25T00:28:12;99948.22;;;0.30;78.29
84677;BME280;74901;55.024;73.254;2024-03-25T00:30:39;99966.00;;;0.31;77.66
84677;BME280;74901;55.024;73.254;2024-03-25T00:33:08;99963.19;;;0.27;77.68
84677;BME280;74901;55.024;73.254;2024-03-25T00:35:36;99959.13;;;0.21;78.74
84677;BME280;74901;55.024;73.254;2024-03-25T00:38:05;99994.84;;;0.15;78.32
84677;BME280;74901;55.024;73.254;2024-03-25T00:40:34;99938.53;;;0.05;78.68
84677;BME280;74901;55.024;73.254;2024-03-25T00:43:02;99970.94;;;0.05;79.34
84677;BME280;74901;55.024;73.254;2024-03-25T00:45:33;99949.34;;;0.05;79.01
84677;BME280;74901;55.024;73.254;2024-03-25T00:48:02;99985.56;;;0.04;79.19
84677;BME280;74901;55.024;73.254;2024-03-25T00:50:30;99964.06;;;0.07;79.29
84677;BME280;74901;55.024;73.254;2024-03-25T00:52:59;99964.06;;;0.07;79.68
84677;BME280;74901;55.024;73.254;2024-03-25T00:55:26;99978.03;;;0.09;79.28
84677;BME280;74901;55.024;73.254;2024-03-25T00:57:55;99973.44;;;0.10;78.82
84677;BME280;74901;55.024;73.254;2024-03-25T01:00:22;99979.63;;;0.10;79.52
84677;BME280;74901;55.024;73.254;2024-03-25T01:02:53;99975.81;;;0.11;78.75
84677;BME280;74901;55.024;73.254;2024-03-25T01:05:21;99995.16;;;0.13;78.97
84677;BME280;74901;55.024;73.254;2024-03-25T01:07:50;99980.84;;;0.13;79.32
84677;BME280;74901;55.024;73.254;2024-03-25T01:10:19;99993.72;;;0.16;78.86
84677;BME280;74901;55.024;73.254;2024-03-25T01:12:47;99985.28;;;0.17;79.27
84677;BME280;74901;55.024;73.254;2024-03-25T01:15:15;99984.16;;;0.18;79.84
84677;BME280;74901;55.024;73.254;2024-03-25T01:17:44;100004.31;;;0.21;79.27
84677;BME280;74901;55.024;73.254;2024-03-25T01:20:13;99999.78;;;0.25;79.69
84677;BME280;74901;55.024;73.254;2024-03-25T01:22:42;100012.97;;;0.26;79.35
84677;BME280;74901;55.024;73.254;2024-03-25T01:25:10;100021.56;;;0.28;79.54
84677;BME280;74901;55.024;73.254;2024-03-25T01:27:38;100025.50;;;0.31;79.79
84677;BME280;74901;55.024;73.254;2024-03-25T01:30:07;100019.75;;;0.32;79.97
84677;BME280;74901;55.024;73.254;2024-03-25T01:32:36;100047.25;;;0.34;79.51
84677;BME280;74901;55.024;73.254;2024-03-25T01:35:04;100045.44;;;0.38;79.00
84677;BME280;74901;55.024;73.254;2024-03-25T01:37:34;100028.56;;;0.42;78.93
84677;BME280;74901;55.024;73.254;2024-03-25T01:40:01;100030.16;;;0.43;79.81
84677;BME280;74901;55.024;73.254;2024-03-25T01:42:31;100047.16;;;0.43;79.45
84677;BME280;74901;55.024;73.254;2024-03-25T01:44:58;100055.72;;;0.45;78.98
84677;BME280;74901;55.024;73.254;2024-03-25T01:47:27;100053.94;;;0.49;79.27
84677;BME280;74901;55.024;73.254;2024-03-25T01:49:55;100069.94;;;0.54;79.52
84677;BME280;74901;55.024;73.254;2024-03-25T01:52:24;100046.41;;;0.55;78.64
84677;BME280;74901;55.024;73.254;2024-03-25T01:54:54;100054.16;;;0.56;78.74
84677;BME280;74901;55.024;73.254;2024-03-25T01:57:26;100067.66;;;0.56;79.20
84677;BME280;74901;55.024;73.254;2024-03-25T01:59:54;100047.75;;;0.61;78.49
84677;BME280;74901;55.024;73.254;2024-03-25T02:02:24;100051.81;;;0.67;79.30
84677;BME280;74901;55.024;73.254;2024-03-25T02:04:52;100057.78;;;0.72;78.31
84677;BME280;74901;55.024;73.254;2024-03-25T02:07:21;100052.06;;;0.74;78.74
84677;BME280;74901;55.024;73.254;2024-03-25T02:09:50;100078.75;;;0.75;79.18
84677;BME280;74901;55.024;73.254;2024-03-25T02:12:22;100084.94;;;0.76;79.17
84677;BME280;74901;55.024;73.254;2024-03-25T02:14:50;100078.09;;;0.78;78.62
84677;BME280;74901;55.024;73.254;2024-03-25T02:17:19;100079.09;;;0.74;78.79
84677;BME280;74901;55.024;73.254;2024-03-25T02:19:46;100086.22;;;0.78;78.30
84677;BME280;74901;55.024;73.254;2024-03-25T02:22:15;100083.50;;;0.78;78.83
84677;BME280;74901;55.024;73.254;2024-03-25T02:24:45;100097.81;;;0.79;78.18
84677;BME280;74901;55.024;73.254;2024-03-25T02:27:32;100098.16;;;0.77;79.26
84677;BME280;74901;55.024;73.254;2024-03-25T02:30:03;100093.53;;;0.78;79.11
84677;BME280;74901;55.024;73.254;2024-03-25T02:32:32;100115.97;;;0.78;79.31
84677;BME280;74901;55.024;73.254;2024-03-25T02:35:00;100112.56;;;0.81;79.00
84677;BME280;74901;55.024;73.254;2024-03-25T02:37:30;100116.41;;;0.80;79.04
84677;BME280;74901;55.024;73.254;2024-03-25T02:39:58;100137.28;;;0.80;78.61
84677;BME280;74901;55.024;73.254;2024-03-25T02:42:30;100137.28;;;0.80;78.83
84677;BME280;74901;55.024;73.254;2024-03-25T02:44:58;100117.19;;;0.81;79.00
84677;BME280;74901;55.024;73.254;2024-03-25T02:47:27;100151.50;;;0.89;78.90
84677;BME280;74901;55.024;73.254;2024-03-25T02:49:54;100125.88;;;0.87;78.08
84677;BME280;74901;55.024;73.254;2024-03-25T02:52:23;100131.09;;;0.92;77.90
84677;BME280;74901;55.024;73.254;2024-03-25T02:54:51;100137.09;;;0.97;78.10
84677;BME280;74901;55.024;73.254;2024-03-25T02:57:20;100133.91;;;0.95;78.60
84677;BME280;74901;55.024;73.254;2024-03-25T02:59:50;100136.50;;;0.92;77.93
84677;BME280;74901;55.024;73.254;2024-03-25T03:02:19;100144.88;;;0.99;77.86
84677;BME280;74901;55.024;73.254;2024-03-25T03:04:46;100155.78;;;1.02;77.21
84677;BME280;74901;55.024;73.254;2024-03-25T03:07:15;100160.41;;;1.02;77.11
84677;BME280;74901;55.024;73.254;2024-03-25T03:09:43;100151.28;;;1.06;77.52
84677;BME280;74901;55.024;73.254;2024-03-25T03:12:11;100182.97;;;1.06;77.02
84677;BME280;74901;55.024;73.254;2024-03-25T03:14:38;100163.59;;;1.04;77.40
84677;BME280;74901;55.024;73.254;2024-03-25T03:17:09;100185.03;;;1.09;77.41
84677;BME280;74901;55.024;73.254;2024-03-25T03:19:36;100193.94;;;1.09;77.55
84677;BME280;74901;55.024;73.254;2024-03-25T03:22:05;100186.84;;;1.17;77.37
84677;BME280;74901;55.024;73.254;2024-03-25T03:24:33;100180.84;;;1.23;76.45
84677;BME280;74901;55.024;73.254;2024-03-25T03:27:02;100191.47;;;1.29;77.14
84677;BME280;74901;55.024;73.254;2024-03-25T03:29:29;100200.94;;;1.23;76.30
84677;BME280;74901;55.024;73.254;2024-03-25T03:31:58;100192.47;;;1.36;76.47
84677;BME280;74901;55.024;73.254;2024-03-25T03:34:28;100189.91;;;1.40;75.79
84677;BME280;74901;55.024;73.254;2024-03-25T03:36:57;100205.13;;;1.44;76.57
84677;BME280;74901;55.024;73.254;2024-03-25T03:39:24;100212.94;;;1.46;75.86
84677;BME280;74901;55.024;73.254;2024-03-25T03:41:53;100195.31;;;1.40;76.08
84677;BME280;74901;55.024;73.254;2024-03-25T03:44:21;100222.28;;;1.48;76.28
84677;BME280;74901;55.024;73.254;2024-03-25T03:46:50;100209.75;;;1.56;75.73
84677;BME280;74901;55.024;73.254;2024-03-25T03:49:17;100213.72;;;1.58;75.25
84677;BME280;74901;55.024;73.254;2024-03-25T03:51:48;100238.19;;;1.62;75.59
84677;BME280;74901;55.024;73.254;2024-03-25T03:54:15;100233.56;;;1.75;74.59
84677;BME280;74901;55.024;73.254;2024-03-25T03:56:44;100247.69;;;1.80;74.37
84677;BME280;74901;55.024;73.254;2024-03-25T03:59:11;100250.75;;;1.79;74.95
84677;BME280;74901;55.024;73.254;2024-03-25T04:01:40;100241.03;;;1.78;75.14
84677;BME280;74901;55.024;73.254;2024-03-25T04:04:08;100245.66;;;1.89;74.07
84677;BME280;74901;55.024;73.254;2024-03-25T04:06:36;100249.78;;;2.11;73.69
84677;BME280;74901;55.024;73.254;2024-03-25T04:09:08;100243.97;;;2.37;73.09
84677;BME280;74901;55.024;73.254;2024-03-25T04:11:38;100270.66;;;2.35;72.03
84677;BME280;74901;55.024;73.254;2024-03-25T04:14:05;100253.38;;;2.39;71.98
84677;BME280;74901;55.024;73.254;2024-03-25T04:16:35;100263.97;;;2.44;72.32
84677;BME280;74901;55.024;73.254;2024-03-25T04:19:02;100268.28;;;2.46;72.03
84677;BME280;74901;55.024;73.254;2024-03-25T04:21:31;100268.66;;;2.60;71.73
84677;BME280;74901;55.024;73.254;2024-03-25T04:23:58;100264.59;;;2.54;71.17
84677;BME280;74901;55.024;73.254;2024-03-25T04:26:29;100274.84;;;2.32;72.31
84677;BME280;74901;55.024;73.254;2024-03-25T04:28:56;100270.59;;;2.19;72.47
84677;BME280;74901;55.024;73.254;2024-03-25T04:31:25;100295.00;;;2.19;72.07
84677;BME280;74901;55.024;73.254;2024-03-25T04:33:53;100285.03;;;2.23;71.86
84677;BME280;74901;55.024;73.254;2024-03-25T04:36:22;100287.53;;;2.28;71.90
84677;BME280;74901;55.024;73.254;2024-03-25T04:38:50;100285.25;;;2.30;71.34
84677;BME280;74901;55.024;73.254;2024-03-25T04:41:17;100289.78;;;2.26;71.76
84677;BME280;74901;55.024;73.254;2024-03-25T04:43:46;100291.38;;;2.27;71.18
84677;BME280;74901;55.024;73.254;2024-03-25T04:46:13;100296.25;;;2.22;71.19
84677;BME280;74901;55.024;73.254;2024-03-25T04:48:40;100301.44;;;2.27;72.57
84677;BME280;74901;55.024;73.254;2024-03-25T04:51:08;100298.47;;;2.32;72.18
84677;BME280;74901;55.024;73.254;2024-03-25T04:53:35;100283.09;;;2.36;71.52
84677;BME280;74901;55.024;73.254;2024-03-25T04:56:03;100294.19;;;2.31;71.04
84677;BME280;74901;55.024;73.254;2024-03-25T04:58:30;100322.34;;;2.26;72.04
84677;BME280;74901;55.024;73.254;2024-03-25T05:00:59;100334.19;;;2.34;71.27
84677;BME280;74901;55.024;73.254;2024-03-25T05:03:27;100315.75;;;2.39;71.22
84677;BME280;74901;55.024;73.254;2024-03-25T05:05:54;100337.88;;;2.54;70.75
84677;BME280;74901;55.024;73.254;2024-03-25T05:08:21;100348.97;;;2.49;70.93
84677;BME280;74901;55.024;73.254;2024-03-25T05:10:49;100328.19;;;2.53;70.06
84677;BME280;74901;55.024;73.254;2024-03-25T05:13:17;100333.03;;;2.59;70.16
84677;BME280;74901;55.024;73.254;2024-03-25T05:15:50;100334.81;;;2.67;69.93
84677;BME280;74901;55.024;73.254;2024-03-25T05:18:19;100330.38;;;2.75;69.87
84677;BME280;74901;55.024;73.254;2024-03-25T05:20:46;100363.72;;;2.88;69.88
84677;BME280;74901;55.024;73.254;2024-03-25T05:23:14;100353.16;;;2.98;69.14
84677;BME280;74901;55.024;73.254;2024-03-25T05:25:41;100332.41;;;3.06;68.84
84677;BME280;74901;55.024;73.254;2024-03-25T05:28:09;100328.19;;;3.36;68.54
84677;BME280;74901;55.024;73.254;2024-03-25T05:30:37;100347.16;;;3.48;67.11
84677;BME280;74901;55.024;73.254;2024-03-25T05:33:04;100362.72;;;3.79;67.04
84677;BME280;74901;55.024;73.254;2024-03-25T05:35:34;100349.97;;;3.83;66.22
84677;BME280;74901;55.024;73.254;2024-03-25T05:38:02;100339.72;;;3.92;65.89
84677;BME280;74901;55.024;73.254;2024-03-25T05:40:29;100365.06;;;3.96;66.20
84677;BME280;74901;55.024;73.254;2024-03-25T05:42:57;100380.00;;;4.18;65.81
84677;BME280;74901;55.024;73.254;2024-03-25T05:45:24;100373.84;;;4.37;65.38
84677;BME280;74901;55.024;73.254;2024-03-25T05:47:52;100388.75;;;4.27;64.49
84677;BME280;74901;55.024;73.254;2024-03-25T05:50:19;100396.84;;;4.24;65.22
84677;BME280;74901;55.024;73.254;2024-03-25T05:52:48;100381.75;;;4.11;64.95
84677;BME280;74901;55.024;73.254;2024-03-25T05:55:16;100376.13;;;4.35;64.16
84677;BME280;74901;55.024;73.254;2024-03-25T06:01:00;100406.41;;;4.49;63.88
84677;BME280;74901;55.024;73.254;2024-03-25T06:03:27;100384.06;;;4.59;63.23
84677;BME280;74901;55.024;73.254;2024-03-25T06:05:54;100404.25;;;4.74;63.08
84677;BME280;74901;55.024;73.254;2024-03-25T06:08:24;100414.13;;;4.82;62.42
84677;BME280;74901;55.024;73.254;2024-03-25T06:10:51;100413.72;;;4.80;62.13
84677;BME280;74901;55.024;73.254;2024-03-25T06:13:19;100438.78;;;4.54;61.99
84677;BME280;74901;55.024;73.254;2024-03-25T06:15:47;100429.06;;;4.37;62.51
84677;BME280;74901;55.024;73.254;2024-03-25T06:18:14;100438.88;;;4.26;63.32
84677;BME280;74901;55.024;73.254;2024-03-25T06:20:41;100435.53;;;4.01;63.68
84677;BME280;74901;55.024;73.254;2024-03-25T06:23:08;100435.97;;;4.03;63.42
84677;BME280;74901;55.024;73.254;2024-03-25T06:25:38;100449.00;;;4.26;63.43
84677;BME280;74901;55.024;73.254;2024-03-25T06:28:07;100451.28;;;4.24;62.50
84677;BME280;74901;55.024;73.254;2024-03-25T06:30:41;100441.38;;;4.31;62.45
84677;BME280;74901;55.024;73.254;2024-03-25T06:33:27;100457.19;;;4.76;61.79
84677;BME280;74901;55.024;73.254;2024-03-25T06:36:12;100454.50;;;4.45;61.34
84677;BME280;74901;55.024;73.254;2024-03-25T06:38:39;100452.66;;;4.33;61.94
84677;BME280;74901;55.024;73.254;2024-03-25T06:41:09;100454.50;;;4.61;61.85
84677;BME280;74901;55.024;73.254;2024-03-25T06:43:37;100463.72;;;4.72;61.02
84677;BME280;74901;55.024;73.254;2024-03-25T06:46:04;100462.56;;;5.08;60.43
84677;BME280;74901;55.024;73.254;2024-03-25T06:48:32;100464.50;;;5.07;60.71
84677;BME280;74901;55.024;73.254;2024-03-25T06:51:00;100461.50;;;4.93;60.29
84677;BME280;74901;55.024;73.254;2024-03-25T06:53:27;100487.22;;;4.96;60.53
84677;BME280;74901;55.024;73.254;2024-03-25T06:55:55;100482.59;;;5.15;59.92
84677;BME280;74901;55.024;73.254;2024-03-25T06:58:26;100511.34;;;5.13;59.37
84677;BME280;74901;55.024;73.254;2024-03-25T07:00:55;100480.41;;;4.86;59.54
84677;BME280;74901;55.024;73.254;2024-03-25T07:03:23;100488.47;;;4.82;59.94
84677;BME280;74901;55.024;73.254;2024-03-25T07:05:51;100508.88;;;4.57;60.79
84677;BME280;74901;55.024;73.254;2024-03-25T07:08:19;100519.94;;;4.48;60.67
84677;BME280;74901;55.024;73.254;2024-03-25T07:10:47;100513.59;;;4.92;60.13
84677;BME280;74901;55.024;73.254;2024-03-25T07:13:14;100504.41;;;4.80;59.90
84677;BME280;74901;55.024;73.254;2024-03-25T07:15:43;100513.59;;;4.92;60.26
84677;BME280;74901;55.024;73.254;2024-03-25T07:18:10;100532.75;;;4.95;59.67
84677;BME280;74901;55.024;73.254;2024-03-25T07:20:37;100549.28;;;4.86;59.32
84677;BME280;74901;55.024;73.254;2024-03-25T07:23:05;100521.63;;;5.19;59.17
84677;BME280;74901;55.024;73.254;2024-03-25T07:25:33;100546.81;;;5.32;58.82
84677;BME280;74901;55.024;73.254;2024-03-25T07:28:00;100542.28;;;5.55;57.82
84677;BME280;74901;55.024;73.254;2024-03-25T07:30:28;100536.28;;;6.23;56.99
84677;BME280;74901;55.024;73.254;2024-03-25T07:32:57;100552.13;;;6.60;56.10
84677;BME280;74901;55.024;73.254;2024-03-25T07:35:26;100559.41;;;6.52;56.08
84677;BME280;74901;55.024;73.254;2024-03-25T07:37:53;100542.16;;;6.71;55.51
84677;BME280;74901;55.024;73.254;2024-03-25T07:40:21;100541.63;;;6.39;55.55
84677;BME280;74901;55.024;73.254;2024-03-25T07:42:49;100556.75;;;5.94;56.45
84677;BME280;74901;55.024;73.254;2024-03-25T07:45:16;100556.88;;;6.21;55.76
84677;BME280;74901;55.024;73.254;2024-03-25T07:47:44;100545.81;;;6.56;54.52
84677;BME280;74901;55.024;73.254;2024-03-25T07:50:13;100568.53;;;7.35;52.72
84677;BME280;74901;55.024;73.254;2024-03-25T07:52:40;100560.16;;;10.22;48.74
84677;BME280;74901;55.024;73.254;2024-03-25T07:55:08;100573.22;;;10.82;44.46
84677;BME280;74901;55.024;73.254;2024-03-25T07:57:36;100534.16;;;10.02;44.20
84677;BME280;74901;55.024;73.254;2024-03-25T08:00:05;100562.13;;;10.29;44.56
84677;BME280;74901;55.024;73.254;2024-03-25T08:02:39;100559.44;;;11.39;42.73
84677;BME280;74901;55.024;73.254;2024-03-25T08:05:06;100578.56;;;11.95;40.74
84677;BME280;74901;55.024;73.254;2024-03-25T08:07:35;100579.34;;;11.99;39.52
84677;BME280;74901;55.024;73.254;2024-03-25T08:10:02;100578.50;;;12.79;38.41
84677;BME280;74901;55.024;73.254;2024-03-25T08:12:29;100592.13;;;14.77;35.38
84677;BME280;74901;55.024;73.254;2024-03-25T08:14:57;100597.47;;;16.20;32.78
84677;BME280;74901;55.024;73.254;2024-03-25T08:17:24;100602.69;;;16.90;31.21
84677;BME280;74901;55.024;73.254;2024-03-25T08:19:52;100610.31;;;17.34;29.62
84677;BME280;74901;55.024;73.254;2024-03-25T08:22:19;100606.38;;;16.67;30.56
84677;BME280;74901;55.024;73.254;2024-03-25T08:24:48;100604.63;;;15.12;32.35
84677;BME280;74901;55.024;73.254;2024-03-25T08:27:16;100622.00;;;14.89;32.56
84677;BME280;74901;55.024;73.254;2024-03-25T08:29:43;100596.56;;;14.71;33.09
84677;BME280;74901;55.024;73.254;2024-03-25T08:32:11;100641.03;;;14.87;32.96
84677;BME280;74901;55.024;73.254;2024-03-25T08:34:39;100632.22;;;14.35;32.50
84677;BME280;74901;55.024;73.254;2024-03-25T08:37:06;100624.78;;;14.28;33.35
84677;BME280;74901;55.024;73.254;2024-03-25T08:39:34;100644.81;;;15.23;31.77
84677;BME280;74901;55.024;73.254;2024-03-25T08:42:03;100652.03;;;15.41;31.27
84677;BME280;74901;55.024;73.254;2024-03-25T08:44:30;100646.31;;;15.51;31.32
84677;BME280;74901;55.024;73.254;2024-03-25T08:46:58;100635.88;;;17.91;27.97
84677;BME280;74901;55.024;73.254;2024-03-25T08:49:27;100648.25;;;17.73;27.68
84677;BME280;74901;55.024;73.254;2024-03-25T08:51:54;100653.47;;;17.55;27.72
84677;BME280;74901;55.024;73.254;2024-03-25T08:54:22;100611.84;;;13.88;31.89
84677;BME280;74901;55.024;73.254;2024-03-25T08:56:49;100663.09;;;9.22;41.95
84677;BME280;74901;55.024;73.254;2024-03-25T08:59:18;100664.16;;;7.05;48.10
84677;BME280;74901;55.024;73.254;2024-03-25T09:01:45;100649.72;;;5.86;51.50
84677;BME280;74901;55.024;73.254;2024-03-25T09:04:13;100657.00;;;5.31;53.75
84677;BME280;74901;55.024;73.254;2024-03-25T09:06:40;100657.13;;;5.03;53.90
84677;BME280;74901;55.024;73.254;2024-03-25T09:09:08;100644.19;;;5.16;53.92
84677;BME280;74901;55.024;73.254;2024-03-25T09:11:54;100658.09;;;5.11;54.42
84677;BME280;74901;55.024;73.254;2024-03-25T09:14:23;100650.81;;;4.99;54.55
84677;BME280;74901;55.024;73.254;2024-03-25T09:16:49;100659.66;;;4.80;55.58
84677;BME280;74901;55.024;73.254;2024-03-25T09:19:18;100655.00;;;4.81;54.72
84677;BME280;74901;55.024;73.254;2024-03-25T09:21:45;100638.09;;;4.75;55.32
84677;BME280;74901;55.024;73.254;2024-03-25T09:24:13;100658.69;;;4.45;57.14
84677;BME280;74901;55.024;73.254;2024-03-25T09:26:40;100653.84;;;4.38;56.31
84677;BME280;74901;55.024;73.254;2024-03-25T09:29:07;100661.06;;;4.46;55.84
84677;BME280;74901;55.024;73.254;2024-03-25T09:31:37;100632.47;;;4.25;56.30
84677;BME280;74901;55.024;73.254;2024-03-25T09:34:03;100666.41;;;4.43;56.44
84677;BME280;74901;55.024;73.254;2024-03-25T09:36:31;100696.16;;;4.36;57.07
84677;BME280;74901;55.024;73.254;2024-03-25T09:38:58;100683.69;;;4.35;57.30
84677;BME280;74901;55.024;73.254;2024-03-25T09:41:28;100675.25;;;4.40;56.97
84677;BME280;74901;55.024;73.254;2024-03-25T09:43:57;100715.75;;;4.41;57.38
84677;BME280;74901;55.024;73.254;2024-03-25T09:46:26;100701.59;;;4.36;56.96
84677;BME280;74901;55.024;73.254;2024-03-25T09:48:55;100714.66;;;4.30;57.01
84677;BME280;74901;55.024;73.254;2024-03-25T09:51:23;100717.94;;;4.36;58.19
84677;BME280;74901;55.024;73.254;2024-03-25T09:53:50;100703.53;;;6.78;53.18
84677;BME280;74901;55.024;73.254;2024-03-25T09:56:18;100685.66;;;11.61;43.63
84677;BME280;74901;55.024;73.254;2024-03-25T10:02:05;100692.38;;;16.11;31.78
84677;BME280;74901;55.024;73.254;2024-03-25T10:04:43;100719.44;;;16.47;30.84
84677;BME280;74901;55.024;73.254;2024-03-25T10:07:11;100721.16;;;16.41;30.14
84677;BME280;74901;55.024;73.254;2024-03-25T10:09:48;100711.81;;;16.31;29.03
84677;BME280;74901;55.024;73.254;2024-03-25T10:12:15;100718.88;;;16.16;29.54
84677;BME280;74901;55.024;73.254;2024-03-25T10:14:43;100710.53;;;15.46;30.81
84677;BME280;74901;55.024;73.254;2024-03-25T10:17:12;100725.69;;;16.31;29.44
84677;BME280;74901;55.024;73.254;2024-03-25T10:19:41;100734.34;;;16.76;28.97
84677;BME280;74901;55.024;73.254;2024-03-25T10:22:08;100757.06;;;17.59;27.72
84677;BME280;74901;55.024;73.254;2024-03-25T10:24:43;100733.97;;;16.11;29.29
84677;BME280;74901;55.024;73.254;2024-03-25T10:27:10;100754.28;;;16.08;29.28
84677;BME280;74901;55.024;73.254;2024-03-25T10:29:38;100723.94;;;16.61;28.52
84677;BME280;74901;55.024;73.254;2024-03-25T10:32:06;100745.09;;;16.11;29.19
84677;BME280;74901;55.024;73.254;2024-03-25T10:34:33;100728.59;;;15.58;29.80
84677;BME280;74901;55.024;73.254;2024-03-25T10:37:04;100741.44;;;13.27;32.91
84677;BME280;74901;55.024;73.254;2024-03-25T10:39:32;100757.72;;;11.85;35.88
84677;BME280;74901;55.024;73.254;2024-03-25T10:42:03;100743.50;;;11.68;36.39
84677;BME280;74901;55.024;73.254;2024-03-25T10:44:33;100746.28;;;11.83;36.89
84677;BME280;74901;55.024;73.254;2024-03-25T10:47:02;100732.91;;;12.96;34.64
84677;BME280;74901;55.024;73.254;2024-03-25T10:49:34;100748.50;;;13.35;33.91
84677;BME280;74901;55.024;73.254;2024-03-25T10:52:06;100760.44;;;13.73;32.94
84677;BME280;74901;55.024;73.254;2024-03-25T10:54:35;100738.44;;;13.00;35.01
84677;BME280;74901;55.024;73.254;2024-03-25T10:57:04;100758.47;;;13.11;35.14
84677;BME280;74901;55.024;73.254;2024-03-25T10:59:33;100763.16;;;12.31;35.67
84677;BME280;74901;55.024;73.254;2024-03-25T11:02:02;100762.16;;;10.60;38.71
84677;BME280;74901;55.024;73.254;2024-03-25T11:04:30;100767.31;;;9.59;41.25
84677;BME280;74901;55.024;73.254;2024-03-25T11:07:08;100772.34;;;8.46;43.78
84677;BME280;74901;55.024;73.254;2024-03-25T11:09:36;100780.97;;;8.22;44.55
84677;BME280;74901;55.024;73.254;2024-03-25T11:12:04;100790.94;;;9.67;42.12
84677;BME280;74901;55.024;73.254;2024-03-25T11:14:32;100783.97;;;10.28;40.02
84677;BME280;74901;55.024;73.254;2024-03-25T11:16:59;100798.31;;;10.69;39.61
84677;BME280;74901;55.024;73.254;2024-03-25T11:19:28;100794.69;;;10.47;39.87
84677;BME280;74901;55.024;73.254;2024-03-25T11:22:06;100792.75;;;11.77;37.51
84677;BME280;74901;55.024;73.254;2024-03-25T11:24:35;100793.91;;;11.80;37.15
84677;BME280;74901;55.024;73.254;2024-03-25T11:27:05;100790.78;;;10.55;39.45
84677;BME280;74901;55.024;73.254;2024-03-25T11:29:33;100812.34;;;10.50;40.32
84677;BME280;74901;55.024;73.254;2024-03-25T11:32:04;100812.56;;;9.72;41.10
84677;BME280;74901;55.024;73.254;2024-03-25T11:34:32;100811.09;;;8.75;43.83
84677;BME280;74901;55.024;73.254;2024-03-25T11:36:59;100785.97;;;9.84;41.58
84677;BME280;74901;55.024;73.254;2024-03-25T11:39:26;100797.75;;;10.39;40.72
84677;BME280;74901;55.024;73.254;2024-03-25T11:41:55;100801.09;;;10.14;40.72
84677;BME280;74901;55.024;73.254;2024-03-25T11:44:22;100792.94;;;10.22;40.69
84677;BME280;74901;55.024;73.254;2024-03-25T11:46:50;100808.84;;;8.54;44.13
84677;BME280;74901;55.024;73.254;2024-03-25T11:49:18;100832.97;;;6.89;48.42
84677;BME280;74901;55.024;73.254;2024-03-25T11:51:45;100832.63;;;5.74;52.20
84677;BME280;74901;55.024;73.254;2024-03-25T11:54:13;100829.09;;;5.14;52.94
84677;BME280;74901;55.024;73.254;2024-03-25T11:56:41;100825.81;;;4.80;54.08
84677;BME280;74901;55.024;73.254;2024-03-25T11:59:10;100820.84;;;4.70;54.94
84677;BME280;74901;55.024;73.254;2024-03-25T12:01:38;100827.66;;;5.04;54.24
84677;BME280;74901;55.024;73.254;2024-03-25T12:04:12;100831.56;;;5.78;53.28
84677;BME280;74901;55.024;73.254;2024-03-25T12:06:40;100833.06;;;5.76;52.68
84677;BME280;74901;55.024;73.254;2024-03-25T12:09:09;100828.50;;;6.11;52.07
84677;BME280;74901;55.024;73.254;2024-03-25T12:11:55;100838.94;;;6.75;50.05
84677;BME280;74901;55.024;73.254;2024-03-25T12:14:25;100851.41;;;6.22;51.39
84677;BME280;74901;55.024;73.254;2024-03-25T12:16:53;100867.00;;;5.90;52.79
84677;BME280;74901;55.024;73.254;2024-03-25T12:19:21;100857.56;;;6.19;51.88
84677;BME280;74901;55.024;73.254;2024-03-25T12:21:58;100840.16;;;7.16;50.28
84677;BME280;74901;55.024;73.254;2024-03-25T12:24:26;100873.22;;;8.37;47.14
84677;BME280;74901;55.024;73.254;2024-03-25T12:26:53;100858.72;;;8.93;46.03
84677;BME280;74901;55.024;73.254;2024-03-25T12:29:21;100870.50;;;9.27;45.13
84677;BME280;74901;55.024;73.254;2024-03-25T12:31:55;100861.97;;;9.02;45.85
84677;BME280;74901;55.024;73.254;2024-03-25T12:34:22;100871.84;;;8.50;46.35
84677;BME280;74901;55.024;73.254;2024-03-25T12:36:51;100883.31;;;8.10;46.92
84677;BME280;74901;55.024;73.254;2024-03-25T12:39:27;100873.22;;;8.15;47.62
84677;BME280;74901;55.024;73.254;2024-03-25T12:41:54;100877.41;;;8.08;47.58
84677;BME280;74901;55.024;73.254;2024-03-25T12:44:22;100884.59;;;7.71;48.53
84677;BME280;74901;55.024;73.254;2024-03-25T12:46:49;100877.84;;;7.65;48.99
84677;BME280;74901;55.024;73.254;2024-03-25T12:49:18;100903.00;;;7.32;49.72
84677;BME280;74901;55.024;73.254;2024-03-25T12:51:46;100907.09;;;7.03;50.50
84677;BME280;74901;55.024;73.254;2024-03-25T12:54:13;100904.28;;;6.65;52.01
84677;BME280;74901;55.024;73.254;2024-03-25T12:56:40;100913.78;;;6.55;52.12
84677;BME280;74901;55.024;73.254;2024-03-25T12:59:08;100914.00;;;6.46;52.10
84677;BME280;74901;55.024;73.254;2024-03-25T13:01:35;100907.59;;;6.23;52.92
84677;BME280;74901;55.024;73.254;2024-03-25T13:04:03;100920.97;;;5.97;53.58